Terminal Aerodrome Forecast
Issued by NWS Portland, ME

Home | Current Version | Previous Version | Text Only | Print | Product List | Glossary On
Versions: 1 2 3 4 5 6 7 8 9 10 11 12 13 14 15 16 17 18
000
FTUS41 KGYX 302007 AAB
TAFCON
TAF AMD
KCON 302007Z 3020/3118 21009KT P6SM SCT050 OVC120
     FM302030 21009KT 5SM -SHRA BKN050
      TEMPO 3021/3022 3SM -TSRA BKN050CB
     FM310000 23003KT 5SM BR SCT040 BKN120
     FM311200 27007KT P6SM SCT050=

USA.gov is the U.S. government's official web portal to all federal, state and local government web resources and services.